Time;durP1;ratioP1;P1;durP2;ratioP2;P2;SDS_P1;SDS_P2;PMS_P1;PMS_P2;Temp;Humidity;BMP_temperature;BMP_pressure;BME280_temperature;BME280_humidity;BME280_pressure;Samples;Min_cycle;Max_cycle;Signal;HPM_P1;HPM_P2
2020/12/20 00:01:47;;;;;;;6.15;4.60;;;19.40;99.90;;;;;;4969805;28;20031;-80
2020/12/20 00:04:14;;;;;;;;;;;19.30;99.90;;;;;;4967770;28;20077;-77
2020/12/20 00:06:44;;;;;;;11.57;5.47;;;19.30;99.90;;;;;;4950164;28;19917;-79
2020/12/20 00:09:15;;;;;;;12.02;5.85;;;19.30;99.90;;;;;;4970008;28;20479;-74
2020/12/20 00:11:44;;;;;;;12.45;6.75;;;19.30;99.90;;;;;;4966026;28;20050;-78
2020/12/20 00:14:27;;;;;;;10.43;6.03;;;19.40;99.90;;;;;;4966147;28;20022;-82
2020/12/20 00:17:05;;;;;;;9.80;5.75;;;19.40;99.90;;;;;;4957826;28;20496;-82
2020/12/20 00:19:33;;;;;;;10.93;6.78;;;19.40;99.90;;;;;;4974427;28;20034;-82
2020/12/20 00:22:06;;;;;;;9.27;6.38;;;19.40;99.90;;;;;;4973099;28;20018;-84
2020/12/20 00:24:34;;;;;;;11.73;5.68;;;19.50;99.90;;;;;;4973589;28;20035;-84
2020/12/20 00:27:03;;;;;;;9.60;6.38;;;19.60;99.90;;;;;;4971388;28;20031;-81
2020/12/20 00:29:34;;;;;;;9.88;5.45;;;19.80;99.90;;;;;;4956200;28;20530;-81
2020/12/20 00:32:03;;;;;;;7.70;5.15;;;20.00;99.90;;;;;;4970172;28;20483;-81
2020/12/20 00:34:30;;;;;;;7.78;4.53;;;20.20;99.90;;;;;;4970702;28;20027;-81
2020/12/20 00:37:00;;;;;;;10.20;4.97;;;20.40;99.90;;;;;;4971343;28;20050;-81
2020/12/20 00:39:28;;;;;;;7.70;4.30;;;20.50;99.90;;;;;;4963558;28;20024;-81
2020/12/20 00:41:57;;;;;;;6.95;4.20;;;20.60;99.90;;;;;;4958295;28;20029;-80
2020/12/20 00:44:26;;;;;;;6.38;3.88;;;20.60;99.90;;;;;;4968491;28;20050;-80
2020/12/20 00:46:54;;;;;;;6.72;4.40;;;20.60;99.90;;;;;;4972347;28;20391;-81
2020/12/20 00:49:25;;;;;;;8.20;4.68;;;20.40;99.90;;;;;;4956364;28;20165;-81
2020/12/20 00:51:56;;;;;;;9.80;4.57;;;20.40;99.90;;;;;;4969557;28;20499;-80
2020/12/20 00:54:23;;;;;;;10.48;4.18;;;20.40;99.90;;;;;;4973307;28;20033;-81
2020/12/20 00:56:51;;;;;;;9.32;4.25;;;20.50;99.90;;;;;;4971120;28;20035;-81
2020/12/20 00:59:21;;;;;;;9.05;3.92;;;20.70;99.90;;;;;;4979863;23;20125;-81
2020/12/20 01:01:49;;;;;;;11.85;5.90;;;20.80;99.90;;;;;;4968916;23;20432;-82
2020/12/20 01:04:16;;;;;;;6.25;4.18;;;21.00;99.90;;;;;;4971200;28;20043;-82
2020/12/20 01:06:44;;;;;;;12.02;4.97;;;21.10;99.90;;;;;;4984798;23;20087;-82
2020/12/20 01:09:15;;;;;;;11.73;3.90;;;21.00;99.90;;;;;;4966546;28;20018;-81
2020/12/20 01:11:43;;;;;;;9.10;4.25;;;20.90;99.90;;;;;;4966618;28;20062;-81
2020/12/20 01:14:10;;;;;;;9.07;3.47;;;20.80;99.90;;;;;;4969105;28;20123;-81
2020/12/20 01:16:38;;;;;;;7.20;3.45;;;20.70;99.90;;;;;;4998672;23;20443;-81
2020/12/20 01:19:05;;;;;;;7.05;3.13;;;20.70;99.90;;;;;;4973249;28;20023;-81
2020/12/20 01:21:34;;;;;;;8.25;3.65;;;20.80;99.90;;;;;;4971710;28;20432;-81
2020/12/20 01:24:02;;;;;;;10.48;3.83;;;20.70;99.90;;;;;;4973845;28;20034;-82
2020/12/20 01:26:30;;;;;;;5.60;3.42;;;20.60;99.90;;;;;;4972791;28;20135;-82
2020/12/20 01:28:58;;;;;;;5.38;2.97;;;20.60;99.90;;;;;;4972740;28;20540;-82
2020/12/20 01:31:25;;;;;;;6.35;3.33;;;20.90;99.90;;;;;;4971603;28;20492;-82
2020/12/20 01:33:53;;;;;;;8.68;2.90;;;21.10;99.90;;;;;;4983700;23;20047;-81
2020/12/20 01:36:20;;;;;;;9.00;2.78;;;21.30;99.90;;;;;;4967041;28;20031;-82
2020/12/20 01:38:47;;;;;;;8.82;2.60;;;21.40;99.90;;;;;;4946824;28;20130;-82
2020/12/20 01:41:15;;;;;;;8.57;2.08;;;21.80;99.90;;;;;;4972297;28;20051;-82
2020/12/20 01:43:51;;;;;;;6.00;2.30;;;22.10;99.90;;;;;;4972456;28;20042;-82
2020/12/20 01:46:20;;;;;;;6.57;1.83;;;22.20;99.90;;;;;;4972074;28;20023;-81
2020/12/20 01:48:50;;;;;;;6.40;1.80;;;22.00;99.90;;;;;;4971448;28;20043;-82
2020/12/20 01:51:18;;;;;;;6.03;2.08;;;22.00;99.90;;;;;;4972176;28;20387;-82
2020/12/20 01:53:47;;;;;;;7.82;2.10;;;22.00;99.90;;;;;;4972683;28;20019;-83
2020/12/20 01:56:14;;;;;;;6.93;1.80;;;22.00;99.90;;;;;;4954913;28;20383;-83
2020/12/20 01:58:45;;;;;;;5.82;1.55;;;22.00;99.90;;;;;;4967618;28;20093;-82
2020/12/20 02:01:12;;;;;;;8.80;2.83;;;21.80;99.90;;;;;;4965618;28;20109;-83
2020/12/20 02:03:40;;;;;;;6.22;2.25;;;21.60;99.90;;;;;;4966661;28;20035;-83
2020/12/20 02:06:12;;;;;;;6.43;1.75;;;21.70;99.90;;;;;;4971254;23;20051;-83
2020/12/20 02:08:39;;;;;;;8.50;2.60;;;21.80;99.90;;;;;;4968983;28;20626;-84
2020/12/20 02:11:11;;;;;;;7.00;1.88;;;21.80;99.90;;;;;;4972784;28;20109;-81
2020/12/20 02:13:51;;;;;;;4.97;1.98;;;21.70;99.90;;;;;;4971154;28;20027;-81
2020/12/20 02:16:23;;;;;;;9.23;3.05;;;21.80;99.90;;;;;;4953979;28;20049;-82
2020/12/20 02:18:51;;;;;;;4.30;1.70;;;21.80;99.90;;;;;;4972628;28;20026;-81
2020/12/20 02:21:21;;;;;;;8.77;2.58;;;21.80;99.90;;;;;;4971565;28;20015;-82
2020/12/20 02:23:50;;;;;;;5.22;2.05;;;21.90;99.90;;;;;;4976577;28;20115;-81
2020/12/20 02:26:22;;;;;;;7.53;1.67;;;22.10;99.90;;;;;;4957418;28;20120;-83
2020/12/20 02:28:50;;;;;;;6.72;1.52;;;22.50;99.90;;;;;;4958919;28;20035;-82
2020/12/20 02:31:18;;;;;;;6.13;1.35;;;22.50;99.90;;;;;;4957786;28;20034;-81
2020/12/20 02:33:46;;;;;;;5.43;1.30;;;22.50;99.90;;;;;;4958953;28;20074;-81
2020/12/20 02:36:14;;;;;;;5.53;1.60;;;22.30;99.90;;;;;;4962094;28;20031;-82
2020/12/20 02:38:42;;;;;;;5.53;1.25;;;22.20;99.90;;;;;;4974424;28;20027;-81
2020/12/20 02:41:09;;;;;;;4.40;1.05;;;22.20;99.90;;;;;;4973837;28;20785;-82
2020/12/20 02:43:37;;;;;;;9.55;2.13;;;22.10;99.90;;;;;;4974870;28;20046;-83
2020/12/20 02:46:04;;;;;;;8.00;2.15;;;22.10;99.90;;;;;;4976558;28;20027;-82
2020/12/20 02:48:31;;;;;;;5.43;1.58;;;22.10;99.90;;;;;;4972030;28;20042;-84
2020/12/20 02:50:59;;;;;;;4.55;1.10;;;22.10;99.90;;;;;;4968644;28;20043;-83
2020/12/20 02:53:26;;;;;;;5.65;1.55;;;21.90;99.90;;;;;;4970708;28;20026;-86
2020/12/20 02:55:53;;;;;;;5.00;1.88;;;22.00;99.90;;;;;;4970328;28;20070;-84
2020/12/20 02:58:20;;;;;;;8.48;2.47;;;21.90;99.90;;;;;;4966037;28;20018;-86
2020/12/20 03:00:48;;;;;;;11.90;1.50;;;21.80;99.90;;;;;;4972556;28;20392;-81
2020/12/20 03:03:15;;;;;;;5.40;1.00;;;21.70;99.90;;;;;;4973005;28;20031;-86
2020/12/20 03:05:42;;;;;;;11.23;1.15;;;21.70;99.90;;;;;;4972011;28;20069;-88
2020/12/20 03:08:10;;;;;;;6.43;1.83;;;21.70;99.90;;;;;;5003236;23;20050;-84
2020/12/20 03:10:37;;;;;;;5.57;2.03;;;21.70;99.90;;;;;;4998668;23;20062;-84
2020/12/20 03:13:04;;;;;;;9.20;2.40;;;21.80;99.90;;;;;;4977444;28;20117;-82
2020/12/20 03:15:32;;;;;;;4.38;1.58;;;21.80;99.90;;;;;;4989529;23;20055;-85
2020/12/20 03:17:59;;;;;;;7.90;2.50;;;21.80;99.90;;;;;;4976534;28;20029;-85
2020/12/20 03:20:26;;;;;;;7.93;2.58;;;21.80;99.90;;;;;;4985752;28;20104;-87
2020/12/20 03:22:54;;;;;;;8.05;2.13;;;21.90;99.90;;;;;;4982956;23;20514;-89
2020/12/20 03:25:21;;;;;;;8.80;1.90;;;21.80;99.90;;;;;;4987825;28;20049;-87
2020/12/20 03:27:48;;;;;;;7.00;2.38;;;21.90;99.90;;;;;;4958161;28;20030;-81
2020/12/20 03:30:16;;;;;;;6.63;1.25;;;21.90;99.90;;;;;;4975247;28;20026;-81
2020/12/20 03:32:43;;;;;;;7.10;1.80;;;21.90;99.90;;;;;;4974379;28;20038;-81
2020/12/20 03:35:10;;;;;;;12.57;1.80;;;21.90;99.90;;;;;;4975194;28;20026;-82
2020/12/20 03:37:38;;;;;;;8.43;2.17;;;22.10;99.90;;;;;;4974456;28;20504;-81
2020/12/20 03:40:05;;;;;;;9.02;2.42;;;22.40;99.90;;;;;;4972848;23;20058;-82
2020/12/20 03:42:32;;;;;;;5.90;1.65;;;22.60;99.90;;;;;;4983918;28;20026;-83
2020/12/20 03:45:00;;;;;;;7.68;1.58;;;22.70;99.90;;;;;;4989732;28;20511;-82
2020/12/20 03:47:27;;;;;;;9.52;2.40;;;22.70;99.90;;;;;;4982761;28;20049;-83
2020/12/20 03:49:54;;;;;;;8.77;1.88;;;22.90;99.90;;;;;;4965497;28;20051;-84
2020/12/20 03:52:21;;;;;;;6.03;1.48;;;23.10;99.90;;;;;;4973279;28;20022;-84
2020/12/20 03:54:49;;;;;;;6.53;1.50;;;23.30;99.90;;;;;;4994650;28;20037;-83
2020/12/20 03:57:16;;;;;;;10.65;2.45;;;23.50;99.90;;;;;;4986368;28;20081;-84
2020/12/20 03:59:43;;;;;;;4.90;1.38;;;23.30;99.90;;;;;;4981045;28;20117;-82
2020/12/20 04:02:10;;;;;;;6.55;1.48;;;23.00;99.90;;;;;;4965655;28;20034;-83
2020/12/20 04:04:38;;;;;;;6.82;1.40;;;22.90;99.90;;;;;;4962773;28;20477;-84
2020/12/20 04:07:05;;;;;;;3.08;1.00;;;22.90;99.90;;;;;;4970548;28;20391;-83
2020/12/20 04:09:32;;;;;;;5.07;1.55;;;22.90;99.90;;;;;;4978539;28;20035;-83
2020/12/20 04:12:02;;;;;;;9.32;1.63;;;22.90;99.90;;;;;;4977189;28;20026;-79
2020/12/20 04:14:29;;;;;;;9.63;1.58;;;22.90;99.90;;;;;;4994398;23;20043;-84
2020/12/20 04:16:57;;;;;;;5.25;2.13;;;22.80;99.90;;;;;;4968193;28;20101;-85
2020/12/20 04:19:24;;;;;;;6.88;1.50;;;22.80;99.90;;;;;;4929845;29;20042;-85
2020/12/20 04:21:51;;;;;;;8.38;1.58;;;22.80;99.90;;;;;;4953134;28;20069;-85
2020/12/20 04:24:19;;;;;;;5.25;1.63;;;22.70;99.90;;;;;;4955481;28;20495;-85
2020/12/20 04:26:46;;;;;;;6.43;1.50;;;22.60;99.90;;;;;;4954080;28;20031;-85
2020/12/20 04:29:14;;;;;;;5.75;1.15;;;22.40;99.90;;;;;;4954394;28;20122;-81
2020/12/20 04:31:41;;;;;;;4.85;1.17;;;22.50;99.90;;;;;;4952626;28;20036;-85
2020/12/20 04:34:08;;;;;;;8.38;1.35;;;22.50;99.90;;;;;;4951081;28;20083;-84
2020/12/20 04:36:35;;;;;;;7.80;1.70;;;22.50;99.90;;;;;;4949194;28;20034;-85
2020/12/20 04:39:04;;;;;;;3.38;1.10;;;22.50;99.90;;;;;;4954304;28;20038;-84
2020/12/20 04:41:31;;;;;;;7.40;1.10;;;22.40;99.90;;;;;;4947232;29;20118;-85
2020/12/20 04:43:59;;;;;;;4.38;1.10;;;22.40;99.90;;;;;;4930519;29;20039;-82
2020/12/20 04:46:27;;;;;;;5.30;0.85;;;22.30;99.90;;;;;;4948051;28;20031;-85
2020/12/20 04:48:55;;;;;;;6.55;0.88;;;22.20;99.90;;;;;;4954128;28;20029;-85
2020/12/20 04:51:24;;;;;;;6.63;1.00;;;22.20;99.90;;;;;;4952773;28;20118;-82
2020/12/20 04:53:52;;;;;;;4.15;0.75;;;22.30;99.90;;;;;;4953033;28;20110;-83
2020/12/20 04:56:22;;;;;;;4.47;1.05;;;22.30;99.90;;;;;;4950896;28;20031;-84
2020/12/20 04:58:50;;;;;;;6.47;0.93;;;22.30;99.90;;;;;;4947556;28;20035;-84
2020/12/20 05:01:17;;;;;;;4.07;1.48;;;22.40;99.90;;;;;;4952839;28;20015;-84
2020/12/20 05:03:44;;;;;;;7.05;1.35;;;22.50;99.90;;;;;;4950585;29;20063;-84
2020/12/20 05:06:12;;;;;;;4.63;1.17;;;22.50;99.90;;;;;;4935553;29;20020;-84
2020/12/20 05:08:39;;;;;;;5.53;1.13;;;22.50;99.90;;;;;;4951562;29;20389;-84
2020/12/20 05:11:07;;;;;;;5.35;1.60;;;22.50;99.90;;;;;;4954173;28;20057;-84
2020/12/20 05:16:07;;;;;;;5.18;1.00;;;22.40;99.90;;;;;;5008342;23;20081;-85
2020/12/20 05:18:34;;;;;;;3.90;0.90;;;22.40;99.90;;;;;;4989858;23;20057;-84
2020/12/20 05:21:01;;;;;;;5.90;1.23;;;22.40;99.90;;;;;;4972963;28;20030;-83
2020/12/20 05:23:30;;;;;;;5.75;1.15;;;22.40;99.90;;;;;;4972340;23;20055;-84
2020/12/20 05:26:07;;;;;;;5.70;0.90;;;22.40;99.90;;;;;;4968773;28;20023;-84
2020/12/20 05:28:34;;;;;;;5.25;1.00;;;22.50;99.90;;;;;;4948348;28;20031;-84
2020/12/20 05:31:09;;;;;;;7.85;0.88;;;22.40;99.90;;;;;;4972453;23;20046;-83
2020/12/20 05:33:37;;;;;;;6.43;1.33;;;22.40;99.90;;;;;;4972759;28;20058;-84
2020/12/20 05:36:07;;;;;;;5.03;0.70;;;22.40;99.90;;;;;;4972301;28;20432;-85
2020/12/20 05:38:35;;;;;;;2.80;1.20;;;22.30;99.90;;;;;;4975141;28;20054;-84
2020/12/20 05:41:04;;;;;;;4.60;1.15;;;22.40;99.90;;;;;;4971536;28;20480;-85
2020/12/20 05:43:31;;;;;;;4.53;0.75;;;22.30;99.90;;;;;;4971713;28;20101;-85
2020/12/20 05:45:59;;;;;;;4.03;0.90;;;22.30;99.90;;;;;;4971195;28;20027;-81
2020/12/20 05:48:30;;;;;;;4.95;0.80;;;22.30;99.90;;;;;;4989294;23;20089;-84
2020/12/20 05:50:59;;;;;;;4.07;1.33;;;22.10;99.90;;;;;;4966459;28;20031;-84
2020/12/20 05:53:34;;;;;;;2.80;0.70;;;22.10;99.90;;;;;;4960953;28;20027;-82
2020/12/20 05:56:04;;;;;;;4.32;1.35;;;22.10;99.90;;;;;;4970531;28;20119;-79
2020/12/20 05:58:32;;;;;;;3.53;0.95;;;22.20;99.90;;;;;;4969293;28;20116;-87
2020/12/20 06:01:03;;;;;;;3.38;0.88;;;22.30;99.90;;;;;;4970594;28;20026;-83
2020/12/20 06:03:30;;;;;;;7.78;1.50;;;22.50;99.90;;;;;;4969271;28;20105;-91
2020/12/20 06:06:02;;;;;;;3.92;1.10;;;22.80;99.90;;;;;;4968322;28;20448;-83
2020/12/20 06:08:33;;;;;;;5.78;1.23;;;22.90;99.90;;;;;;4949564;28;20388;-84
2020/12/20 06:11:03;;;;;;;2.72;0.52;;;22.70;99.90;;;;;;4967373;28;20411;-85
2020/12/20 06:13:32;;;;;;;5.03;1.08;;;22.80;99.90;;;;;;4968980;28;20424;-84
2020/12/20 06:16:08;;;;;;;7.82;2.25;;;22.70;99.90;;;;;;4969572;28;20503;-81
2020/12/20 06:18:50;;;;;;;6.90;1.15;;;22.80;99.90;;;;;;4967793;28;20035;-83
2020/12/20 06:21:26;;;;;;;4.13;0.77;;;22.60;99.90;;;;;;4987917;23;20047;-84
2020/12/20 06:23:57;;;;;;;4.38;1.02;;;22.70;99.90;;;;;;4971536;28;20114;-81
2020/12/20 06:26:33;;;;;;;3.30;0.73;;;22.70;99.90;;;;;;4972785;28;20015;-84
2020/12/20 06:29:04;;;;;;;8.88;1.77;;;22.40;99.90;;;;;;4966579;28;20022;-85
2020/12/20 06:31:40;;;;;;;2.30;0.60;;;22.30;99.90;;;;;;4967275;28;20093;-83
2020/12/20 06:34:15;;;;;;;6.10;1.08;;;22.40;99.90;;;;;;4968394;28;20019;-84
2020/12/20 06:36:44;;;;;;;3.30;0.90;;;22.40;99.90;;;;;;4964399;28;20028;-85
2020/12/20 06:39:16;;;;;;;3.97;1.17;;;22.30;99.90;;;;;;4960490;28;20037;-86
2020/12/20 06:41:44;;;;;;;6.78;1.15;;;22.20;99.90;;;;;;4968503;28;20067;-85
2020/12/20 06:44:15;;;;;;;6.97;1.33;;;22.20;99.90;;;;;;4970893;28;20054;-86
2020/12/20 06:46:46;;;;;;;7.97;1.38;;;22.20;99.90;;;;;;4963713;28;20051;-86
2020/12/20 06:49:32;;;;;;;6.70;2.00;;;22.20;99.90;;;;;;4966972;28;20519;-87
2020/12/20 06:52:18;;;;;;;8.45;1.80;;;22.30;99.90;;;;;;4966927;28;20082;-86
2020/12/20 06:55:11;;;;;;;5.18;1.20;;;22.40;99.90;;;;;;4970284;28;20051;-87
2020/12/20 06:58:00;;;;;;;8.15;1.55;;;22.30;99.90;;;;;;4965058;28;20027;-85
2020/12/20 07:00:47;;;;;;;5.53;1.13;;;22.40;99.90;;;;;;4971579;28;20117;-90
2020/12/20 07:03:32;;;;;;;7.22;1.90;;;22.50;99.90;;;;;;4966619;28;20058;-86
2020/12/20 07:06:10;;;;;;;7.03;1.73;;;22.60;99.90;;;;;;4969095;28;20395;-86
2020/12/20 07:08:38;;;;;;;8.23;0.93;;;22.50;99.90;;;;;;4969484;28;20043;-88
2020/12/20 07:11:17;;;;;;;5.55;0.98;;;22.40;99.90;;;;;;4970087;28;20459;-85
2020/12/20 07:13:46;;;;;;;5.63;1.30;;;22.40;99.90;;;;;;4971823;28;20046;-89
2020/12/20 07:16:21;;;;;;;2.58;0.75;;;22.20;99.90;;;;;;4972254;28;20058;-86
2020/12/20 07:19:02;;;;;;;6.00;1.35;;;22.10;99.90;;;;;;4970970;28;20121;-87
2020/12/20 07:21:30;;;;;;;4.95;0.70;;;22.00;99.90;;;;;;4982055;23;20093;-86
2020/12/20 07:24:06;;;;;;;7.57;1.52;;;21.90;99.90;;;;;;4987749;23;20146;-85
2020/12/20 07:26:33;;;;;;;4.32;0.70;;;22.00;99.90;;;;;;4982468;23;20063;-86
2020/12/20 07:29:05;;;;;;;3.25;0.88;;;22.00;99.90;;;;;;4968173;28;20026;-88
2020/12/20 07:31:33;;;;;;;5.05;1.17;;;22.00;99.90;;;;;;5007351;23;20177;-87
2020/12/20 07:34:01;;;;;;;6.78;0.75;;;21.80;99.90;;;;;;4977445;28;20118;-87
2020/12/20 07:36:28;;;;;;;8.77;1.40;;;21.80;99.90;;;;;;4966441;28;20034;-89
2020/12/20 07:38:56;;;;;;;6.15;0.93;;;21.70;99.90;;;;;;4978789;23;20078;-87
2020/12/20 07:41:27;;;;;;;4.25;0.95;;;21.70;99.90;;;;;;4988212;28;20098;-87
2020/12/20 07:43:54;;;;;;;6.32;1.17;;;21.70;99.90;;;;;;4975333;28;20126;-87
2020/12/20 07:46:22;;;;;;;8.10;1.42;;;21.70;99.90;;;;;;4975092;28;20105;-87
2020/12/20 07:48:51;;;;;;;6.50;1.90;;;21.60;99.90;;;;;;4975507;28;20155;-85
2020/12/20 07:51:19;;;;;;;10.00;1.30;;;21.50;99.90;;;;;;4986457;28;20092;-87
2020/12/20 07:53:55;;;;;;;5.80;1.30;;;21.50;99.90;;;;;;4994653;28;20026;-84
2020/12/20 07:56:24;;;;;;;8.50;1.50;;;21.50;99.90;;;;;;4979826;23;20081;-87
2020/12/20 07:58:53;;;;;;;3.63;1.20;;;21.40;99.90;;;;;;4948907;28;20027;-86
2020/12/20 08:01:20;;;;;;;5.03;0.90;;;21.30;99.90;;;;;;4939508;29;20034;-86
2020/12/20 08:03:48;;;;;;;7.68;1.98;;;21.30;99.90;;;;;;4957070;28;20035;-87
2020/12/20 08:06:16;;;;;;;16.00;5.63;;;21.20;99.90;;;;;;4969472;28;20034;-87
2020/12/20 08:08:45;;;;;;;11.68;3.53;;;21.20;99.90;;;;;;4976368;28;20062;-88
2020/12/20 08:11:28;;;;;;;9.50;2.60;;;21.10;99.90;;;;;;4958277;28;20424;-87
2020/12/20 08:13:56;;;;;;;7.90;2.03;;;21.10;99.90;;;;;;4947808;29;20027;-86
2020/12/20 08:16:31;;;;;;;9.85;2.45;;;21.10;99.90;;;;;;4970300;28;20029;-88
2020/12/20 08:19:10;;;;;;;10.63;1.52;;;21.00;99.90;;;;;;4966295;28;20028;-86
2020/12/20 08:21:47;;;;;;;12.48;1.73;;;21.00;99.90;;;;;;4945377;28;20448;-86
2020/12/20 08:24:15;;;;;;;8.90;2.10;;;21.00;99.90;;;;;;4954814;28;20058;-86
2020/12/20 08:26:43;;;;;;;13.55;2.40;;;21.00;99.90;;;;;;4970364;28;20030;-86
2020/12/20 08:29:14;;;;;;;8.95;2.05;;;20.90;99.90;;;;;;4973656;23;20047;-87
2020/12/20 08:31:41;;;;;;;5.10;0.95;;;20.90;99.90;;;;;;4974781;28;20106;-87
2020/12/20 08:34:34;;;;;;;6.70;2.13;;;20.90;99.90;;;;;;4971974;28;20041;-86
2020/12/20 08:37:09;;;;;;;7.70;1.58;;;20.80;99.90;;;;;;4963198;28;20043;-86
2020/12/20 08:39:37;;;;;;;6.63;1.70;;;20.80;99.90;;;;;;4954855;28;20027;-86
2020/12/20 08:42:09;;;;;;;2.80;0.80;;;20.80;99.90;;;;;;4955024;28;20707;-88
2020/12/20 08:44:38;;;;;;;6.32;1.52;;;20.70;99.90;;;;;;4961080;28;20084;-86
2020/12/20 08:47:16;;;;;;;4.45;1.63;;;20.80;99.90;;;;;;4966486;28;20085;-85
2020/12/20 08:50:04;;;;;;;3.33;0.82;;;20.70;99.90;;;;;;4973280;28;20035;-86
2020/12/20 08:52:33;;;;;;;5.03;1.00;;;20.60;99.90;;;;;;4973405;28;20034;-86
2020/12/20 08:55:02;;;;;;;9.43;1.38;;;20.60;99.90;;;;;;4974876;28;20424;-83
2020/12/20 08:57:31;;;;;;;6.82;1.55;;;20.60;99.90;;;;;;4973647;28;20022;-82
2020/12/20 09:00:13;;;;;;;3.97;1.02;;;20.60;99.90;;;;;;4973574;28;20500;-83
2020/12/20 09:02:41;;;;;;;6.57;1.13;;;20.60;99.90;;;;;;4973695;28;20034;-82
2020/12/20 09:05:17;;;;;;;8.93;0.90;;;20.60;99.90;;;;;;4973676;28;20499;-83
2020/12/20 09:07:49;;;;;;;5.28;0.88;;;20.50;99.90;;;;;;4956160;28;20034;-82
2020/12/20 09:10:34;;;;;;;13.18;1.92;;;20.40;99.90;;;;;;4973702;28;20498;-82
2020/12/20 09:13:09;;;;;;;5.90;1.05;;;20.50;99.90;;;;;;4974239;28;20042;-81
2020/12/20 09:15:41;;;;;;;4.53;1.15;;;20.50;99.90;;;;;;4965088;28;20430;-80
2020/12/20 09:18:18;;;;;;;8.98;1.30;;;20.50;99.90;;;;;;4972905;28;20023;-80
2020/12/20 09:20:46;;;;;;;8.52;1.42;;;20.40;99.90;;;;;;4960225;28;20073;-81
2020/12/20 09:23:21;;;;;;;6.93;1.83;;;20.50;99.90;;;;;;4970748;28;20072;-80
2020/12/20 09:25:50;;;;;;;10.48;1.45;;;20.50;99.90;;;;;;4972033;28;20046;-80
2020/12/20 09:28:24;;;;;;;11.73;2.00;;;20.40;99.90;;;;;;4963062;28;20051;-82
2020/12/20 09:30:54;;;;;;;6.45;1.48;;;20.40;99.90;;;;;;4998205;23;20063;-80
2020/12/20 09:33:29;;;;;;;12.45;1.15;;;20.40;99.90;;;;;;4979256;23;20042;-80
2020/12/20 09:36:06;;;;;;;7.25;1.65;;;20.40;99.90;;;;;;4956276;28;20031;-80
2020/12/20 09:38:39;;;;;;;5.10;2.05;;;20.40;99.90;;;;;;4981000;23;20066;-80
2020/12/20 09:41:14;;;;;;;8.35;1.27;;;20.40;99.90;;;;;;4972837;28;20105;-80
2020/12/20 09:43:43;;;;;;;9.98;1.38;;;20.30;99.90;;;;;;4953390;29;20023;-80
2020/12/20 09:46:28;;;;;;;7.05;1.48;;;20.30;99.90;;;;;;4966060;23;20070;-80
2020/12/20 09:48:57;;;;;;;9.30;2.15;;;20.20;99.90;;;;;;4972388;28;20027;-80
2020/12/20 09:51:24;;;;;;;8.52;1.42;;;20.20;99.90;;;;;;4955345;28;20042;-80
2020/12/20 09:53:52;;;;;;;8.15;1.55;;;20.20;99.90;;;;;;4971970;28;20077;-81
2020/12/20 09:56:20;;;;;;;8.25;1.58;;;20.20;99.90;;;;;;4972807;28;20543;-80
2020/12/20 09:58:48;;;;;;;7.93;1.98;;;20.20;99.90;;;;;;4956132;28;20038;-80
2020/12/20 10:01:21;;;;;;;11.05;1.90;;;20.20;99.90;;;;;;4973746;28;20027;-80
2020/12/20 10:03:49;;;;;;;12.57;2.10;;;20.20;99.90;;;;;;4990251;23;20091;-80
2020/12/20 10:06:18;;;;;;;8.95;1.48;;;20.20;99.90;;;;;;4973262;28;20038;-80
2020/12/20 10:08:45;;;;;;;10.70;1.58;;;20.30;99.90;;;;;;4970020;28;20089;-81
2020/12/20 10:11:21;;;;;;;9.48;1.75;;;20.30;99.90;;;;;;4971142;28;20047;-80
2020/12/20 10:13:48;;;;;;;13.20;1.67;;;20.20;99.90;;;;;;4972980;28;20033;-80
2020/12/20 10:16:22;;;;;;;9.45;1.55;;;20.10;99.90;;;;;;4975774;28;20033;-81
2020/12/20 10:18:50;;;;;;;8.75;1.92;;;20.10;99.90;;;;;;4967900;28;20027;-81
2020/12/20 10:21:17;;;;;;;10.95;2.00;;;20.10;99.90;;;;;;4968417;28;20488;-80
2020/12/20 10:23:45;;;;;;;7.75;1.73;;;20.10;99.90;;;;;;4960307;28;20045;-81
2020/12/20 10:26:12;;;;;;;9.68;1.42;;;20.10;99.90;;;;;;4972872;28;20018;-80
2020/12/20 10:28:39;;;;;;;12.40;1.63;;;20.10;99.90;;;;;;4952547;28;20027;-81
2020/12/20 10:31:07;;;;;;;10.43;1.67;;;20.10;99.90;;;;;;4971515;28;20038;-80
2020/12/20 10:33:34;;;;;;;7.28;1.25;;;20.10;99.90;;;;;;4972111;28;20023;-81
2020/12/20 10:36:01;;;;;;;7.95;1.80;;;20.10;99.90;;;;;;4987889;23;20055;-85
2020/12/20 10:38:29;;;;;;;8.88;1.75;;;20.00;99.90;;;;;;4964829;28;20399;-83
2020/12/20 10:40:56;;;;;;;8.50;1.95;;;20.00;99.90;;;;;;4959612;28;20065;-83
2020/12/20 10:43:26;;;;;;;9.07;1.75;;;20.00;99.90;;;;;;4973131;28;20081;-83
2020/12/20 10:45:53;;;;;;;11.43;1.70;;;20.00;99.90;;;;;;4974915;28;20023;-84
2020/12/20 10:48:21;;;;;;;4.95;1.55;;;20.00;99.90;;;;;;4975849;28;20027;-84
2020/12/20 10:50:49;;;;;;;6.50;1.60;;;20.00;99.90;;;;;;4975979;28;20122;-84
2020/12/20 10:53:16;;;;;;;9.50;1.75;;;20.00;99.90;;;;;;4963047;28;20015;-85
2020/12/20 10:55:43;;;;;;;11.32;1.98;;;20.00;99.90;;;;;;4975615;28;20045;-85
2020/12/20 10:58:11;;;;;;;9.18;1.65;;;19.90;99.90;;;;;;4975330;28;20094;-84
2020/12/20 11:00:38;;;;;;;10.20;1.92;;;19.90;99.90;;;;;;4975815;28;20130;-85
2020/12/20 11:03:06;;;;;;;7.22;2.00;;;19.90;99.90;;;;;;4973339;28;20439;-85
2020/12/20 11:05:33;;;;;;;10.95;1.88;;;19.90;99.90;;;;;;4965823;28;20026;-85
2020/12/20 11:08:01;;;;;;;12.30;2.22;;;19.90;99.90;;;;;;4975492;28;20041;-84
2020/12/20 11:10:29;;;;;;;8.65;1.55;;;20.00;99.90;;;;;;4975048;28;20038;-84
2020/12/20 11:12:56;;;;;;;5.65;1.33;;;20.00;99.90;;;;;;4965025;28;20023;-84
2020/12/20 11:15:23;;;;;;;7.43;1.70;;;19.90;99.90;;;;;;4956577;29;20118;-83
2020/12/20 11:17:50;;;;;;;11.85;1.50;;;19.90;99.90;;;;;;4966288;28;20376;-84
2020/12/20 11:20:18;;;;;;;7.38;1.67;;;19.90;99.90;;;;;;4958172;28;20038;-84
2020/12/20 11:22:45;;;;;;;7.50;1.85;;;19.90;99.90;;;;;;4972199;28;20027;-84
2020/12/20 11:25:12;;;;;;;9.93;2.08;;;19.80;99.90;;;;;;4974703;28;20058;-84
2020/12/20 11:27:39;;;;;;;11.10;1.75;;;19.70;99.90;;;;;;4974988;28;20022;-84
2020/12/20 11:30:07;;;;;;;11.80;1.70;;;19.70;99.90;;;;;;4975706;28;20031;-84
2020/12/20 11:32:35;;;;;;;11.68;1.95;;;19.70;99.90;;;;;;4958189;28;20031;-84
2020/12/20 11:35:04;;;;;;;9.68;2.30;;;19.70;99.90;;;;;;4975783;28;20061;-84
2020/12/20 11:39:57;;;;;;;14.27;3.47;;;19.70;99.90;;;;;;4988725;23;20034;-84
2020/12/20 11:42:25;;;;;;;8.60;1.40;;;19.70;99.90;;;;;;4977126;28;20034;-84
2020/12/20 11:44:52;;;;;;;8.98;2.42;;;19.70;99.90;;;;;;5001327;23;20089;-84
2020/12/20 11:47:19;;;;;;;8.70;2.33;;;19.70;99.90;;;;;;4994586;28;20476;-84
2020/12/20 11:49:46;;;;;;;7.45;1.60;;;19.70;99.90;;;;;;4994873;28;20034;-85
2020/12/20 11:52:14;;;;;;;3.78;1.23;;;19.70;99.90;;;;;;4994390;28;20125;-85
2020/12/20 11:54:41;;;;;;;13.25;2.28;;;19.60;99.90;;;;;;4987715;23;20117;-84
2020/12/20 11:57:08;;;;;;;7.35;2.20;;;19.60;99.90;;;;;;4955406;28;20034;-84
2020/12/20 11:59:36;;;;;;;9.05;2.08;;;19.60;99.90;;;;;;4956109;28;20034;-84
2020/12/20 12:02:03;;;;;;;7.65;2.17;;;19.60;99.90;;;;;;4974648;28;20034;-84
2020/12/20 12:04:30;;;;;;;4.07;1.30;;;19.60;99.90;;;;;;4974046;28;20035;-84
2020/12/20 12:07:00;;;;;;;8.18;1.83;;;19.60;99.90;;;;;;4965942;28;20034;-84
2020/12/20 12:09:28;;;;;;;11.63;2.00;;;19.60;99.90;;;;;;4971284;28;20055;-84
2020/12/20 12:11:55;;;;;;;9.95;2.38;;;19.60;99.90;;;;;;4975338;23;20085;-84
2020/12/20 12:14:22;;;;;;;13.13;2.05;;;19.60;99.90;;;;;;4974399;28;20030;-85
2020/12/20 12:16:49;;;;;;;8.50;2.33;;;19.50;99.90;;;;;;4972487;28;20027;-84
2020/12/20 12:19:17;;;;;;;9.85;2.05;;;19.50;99.90;;;;;;4957418;28;20023;-84
2020/12/20 12:21:47;;;;;;;9.63;1.98;;;19.50;99.90;;;;;;4955377;29;20110;-85
2020/12/20 12:24:14;;;;;;;8.57;2.00;;;19.60;99.90;;;;;;4961390;28;20038;-85
2020/12/20 12:26:46;;;;;;;8.38;1.45;;;19.60;99.90;;;;;;4957286;28;20030;-85
2020/12/20 12:29:13;;;;;;;7.30;2.70;;;19.60;99.90;;;;;;4973665;28;20029;-85
2020/12/20 12:31:41;;;;;;;9.13;1.90;;;19.50;99.90;;;;;;4973922;28;20043;-85
2020/12/20 12:34:08;;;;;;;6.50;1.70;;;19.50;99.90;;;;;;4970400;28;20035;-85
2020/12/20 12:36:35;;;;;;;7.20;2.38;;;19.50;99.90;;;;;;4974657;28;20054;-85
2020/12/20 12:39:04;;;;;;;10.57;1.88;;;19.40;99.90;;;;;;4962282;28;20054;-84
2020/12/20 12:41:31;;;;;;;9.27;1.40;;;19.50;99.90;;;;;;4973910;28;20090;-85
2020/12/20 12:43:59;;;;;;;5.93;1.75;;;19.40;99.90;;;;;;4999968;23;20057;-84
2020/12/20 12:46:26;;;;;;;6.00;1.98;;;19.40;99.90;;;;;;4975820;28;20054;-85
2020/12/20 12:48:54;;;;;;;8.82;2.05;;;19.50;99.90;;;;;;4974282;28;21151;-85
2020/12/20 12:51:25;;;;;;;9.32;2.35;;;19.50;99.90;;;;;;4972581;28;20476;-84
2020/12/20 12:53:53;;;;;;;9.77;1.50;;;19.40;99.90;;;;;;4955106;28;20023;-84
2020/12/20 12:56:21;;;;;;;11.38;2.25;;;19.40;99.90;;;;;;4973806;28;20035;-85
2020/12/20 12:58:48;;;;;;;10.43;2.63;;;19.40;99.90;;;;;;4973546;28;20031;-84
2020/12/20 13:01:16;;;;;;;9.40;1.98;;;19.40;99.90;;;;;;4973647;28;20019;-85
2020/12/20 13:03:44;;;;;;;9.02;2.72;;;19.40;99.90;;;;;;4974051;28;20503;-85